Time;durP1;ratioP1;P1;durP2;ratioP2;P2;SDS_P1;SDS_P2;PMS_P1;PMS_P2;Temp;Humidity;BMP_temperature;BMP_pressure;BME280_temperature;BME280_humidity;BME280_pressure;Samples;Min_cycle;Max_cycle;Signal;HPM_P1;HPM_P2
2022/01/19 00:01:26;;;;;;;37.92;14.60;;;;;;;;;;4886952;29;20029;-92
2022/01/19 00:03:52;;;;;;;34.65;16.05;;;;;;;;;;4885807;29;20412;-92
2022/01/19 00:06:18;;;;;;;39.45;16.55;;;;;;;;;;4886832;29;20041;-92
2022/01/19 00:08:44;;;;;;;36.05;14.38;;;;;;;;;;4885895;29;20407;-91
2022/01/19 00:11:11;;;;;;;33.17;12.77;;;;;;;;;;4886867;29;20045;-91
2022/01/19 00:13:37;;;;;;;36.97;14.35;;;;;;;;;;4885681;29;20040;-90
2022/01/19 00:16:03;;;;;;;40.38;14.13;;;;;;;;;;4885663;29;20025;-90
2022/01/19 00:18:29;;;;;;;32.83;14.50;;;;;;;;;;4885581;29;20037;-90
2022/01/19 00:20:56;;;;;;;45.90;17.50;;;;;;;;;;4886529;29;20029;-91
2022/01/19 00:23:23;;;;;;;37.10;13.50;;;;;;;;;;4886366;29;20033;-91
2022/01/19 00:25:49;;;;;;;33.53;12.68;;;;;;;;;;4886248;29;20093;-91
2022/01/19 00:28:16;;;;;;;33.47;12.43;;;;;;;;;;4886349;29;20120;-92
2022/01/19 00:30:42;;;;;;;33.58;12.63;;;;;;;;;;4886583;29;20021;-93
2022/01/19 00:33:08;;;;;;;36.25;13.27;;;;;;;;;;4886391;29;20036;-92
2022/01/19 00:35:35;;;;;;;30.67;13.75;;;;;;;;;;4886238;29;20416;-92
2022/01/19 00:38:02;;;;;;;29.42;11.65;;;;;;;;;;4885560;29;20060;-92
2022/01/19 00:40:29;;;;;;;37.25;14.30;;;;;;;;;;4885034;29;20036;-91
2022/01/19 00:42:57;;;;;;;36.45;13.75;;;;;;;;;;4886092;29;20037;-92
2022/01/19 00:45:23;;;;;;;42.42;15.95;;;;;;;;;;4886149;29;20405;-91
2022/01/19 00:47:50;;;;;;;36.72;12.40;;;;;;;;;;4886051;29;20066;-92
2022/01/19 00:50:18;;;;;;;30.27;11.30;;;;;;;;;;4885846;29;20378;-93
2022/01/19 00:52:44;;;;;;;27.65;10.38;;;;;;;;;;4885217;29;20025;-93
2022/01/19 00:55:11;;;;;;;32.47;11.43;;;;;;;;;;4884941;29;20474;-91
2022/01/19 00:57:37;;;;;;;38.10;13.88;;;;;;;;;;4885565;29;20045;-90
2022/01/19 01:00:05;;;;;;;37.08;14.05;;;;;;;;;;4885886;29;20044;-90
2022/01/19 01:02:31;;;;;;;36.70;12.43;;;;;;;;;;4885326;29;20029;-92
2022/01/19 01:04:57;;;;;;;31.42;10.98;;;;;;;;;;4885676;29;20032;-91
2022/01/19 01:13:17;;;;;;;24.98;9.95;;;;;;;;;;5035493;23;20357;-92
2022/01/19 01:38:56;;;;;;;45.20;17.02;;;;;;;;;;4970661;28;20042;-91
2022/01/19 01:47:04;;;;;;;34.50;12.43;;;;;;;;;;5036795;23;20058;-90
2022/01/19 01:54:59;;;;;;;32.08;11.88;;;;;;;;;;4980300;28;20066;-91
2022/01/19 01:57:26;;;;;;;31.38;12.77;;;;;;;;;;4980114;28;20022;-92
2022/01/19 01:59:52;;;;;;;26.10;10.65;;;;;;;;;;4979767;28;20077;-90
2022/01/19 02:02:18;;;;;;;35.00;12.73;;;;;;;;;;4979381;28;20118;-91
2022/01/19 02:04:44;;;;;;;31.15;13.07;;;;;;;;;;4979485;28;20043;-92
2022/01/19 02:09:59;;;;;;;31.42;12.43;;;;;;;;;;4979877;28;20139;-93
2022/01/19 02:40:51;;;;;;;26.08;10.80;;;;;;;;;;4960457;28;20069;-92
2022/01/19 02:51:32;;;;;;;22.23;9.43;;;;;;;;;;4959900;28;20066;-91
2022/01/19 02:53:58;;;;;;;33.22;12.13;;;;;;;;;;4959812;28;20027;-91
2022/01/19 02:56:30;;;;;;;33.97;11.40;;;;;;;;;;4959593;28;20027;-91
2022/01/19 02:59:04;;;;;;;27.15;10.73;;;;;;;;;;4959578;28;20027;-91
2022/01/19 03:09:26;;;;;;;34.08;14.65;;;;;;;;;;4959391;28;20027;-92
2022/01/19 03:11:52;;;;;;;46.50;17.10;;;;;;;;;;4959239;28;20019;-91
2022/01/19 03:14:18;;;;;;;52.75;21.92;;;;;;;;;;4959543;28;20032;-91
2022/01/19 03:16:45;;;;;;;51.78;20.00;;;;;;;;;;4946470;29;20110;-92
2022/01/19 03:19:11;;;;;;;37.33;14.05;;;;;;;;;;4963263;29;20414;-91
2022/01/19 03:21:38;;;;;;;28.20;11.98;;;;;;;;;;4963316;29;20029;-93
2022/01/19 03:24:05;;;;;;;33.50;14.25;;;;;;;;;;4963339;28;20055;-91
2022/01/19 03:26:31;;;;;;;28.17;12.52;;;;;;;;;;4963328;29;20119;-91
2022/01/19 03:28:57;;;;;;;36.72;13.63;;;;;;;;;;4963195;28;20027;-91
2022/01/19 03:31:23;;;;;;;33.90;13.85;;;;;;;;;;4962950;29;20055;-95
2022/01/19 03:33:50;;;;;;;31.80;14.43;;;;;;;;;;4963108;29;20032;-92
2022/01/19 03:36:17;;;;;;;31.10;13.40;;;;;;;;;;4946140;29;20070;-91
2022/01/19 03:38:43;;;;;;;34.58;13.48;;;;;;;;;;4956549;28;20024;-92
2022/01/19 03:41:10;;;;;;;43.08;16.77;;;;;;;;;;4945949;29;20032;-91
2022/01/19 03:43:36;;;;;;;36.55;15.80;;;;;;;;;;4946054;29;20401;-91
2022/01/19 03:46:04;;;;;;;34.55;14.60;;;;;;;;;;4963204;29;20362;-91
2022/01/19 03:48:42;;;;;;;35.70;14.35;;;;;;;;;;4946086;29;20374;-93
2022/01/19 03:51:08;;;;;;;34.50;13.70;;;;;;;;;;4962805;29;20106;-90
2022/01/19 03:53:35;;;;;;;32.40;14.50;;;;;;;;;;4962648;28;20031;-91
2022/01/19 03:56:01;;;;;;;40.10;17.08;;;;;;;;;;4962565;29;20030;-91
2022/01/19 03:58:27;;;;;;;31.60;15.65;;;;;;;;;;4962738;29;20028;-91
2022/01/19 04:00:57;;;;;;;35.10;16.20;;;;;;;;;;4962448;29;20043;-91
2022/01/19 04:03:39;;;;;;;38.67;14.65;;;;;;;;;;4945484;29;20042;-90
2022/01/19 05:13:50;;;;;;;43.50;20.95;;;;;;;;;;4981537;23;20052;-91
2022/01/19 05:19:29;;;;;;;51.67;21.40;;;;;;;;;;4993634;23;20055;-92
2022/01/19 05:21:55;;;;;;;38.63;17.92;;;;;;;;;;4975697;28;20428;-91
2022/01/19 05:27:06;;;;;;;36.75;15.32;;;;;;;;;;4970063;23;20136;-92
2022/01/19 05:29:32;;;;;;;46.78;16.20;;;;;;;;;;4942087;29;20031;-92
2022/01/19 05:31:58;;;;;;;40.92;15.75;;;;;;;;;;4924660;29;20020;-92
2022/01/19 05:34:24;;;;;;;37.35;16.25;;;;;;;;;;4942058;29;20055;-91
2022/01/19 05:36:50;;;;;;;38.88;17.02;;;;;;;;;;4941135;29;20034;-91
2022/01/19 05:39:16;;;;;;;39.55;18.85;;;;;;;;;;4941707;29;20028;-91
2022/01/19 05:41:43;;;;;;;52.92;23.90;;;;;;;;;;4941106;29;20019;-92
2022/01/19 05:44:09;;;;;;;58.42;23.23;;;;;;;;;;4941627;29;20028;-91
2022/01/19 05:46:35;;;;;;;46.22;20.35;;;;;;;;;;4941561;29;20031;-92
2022/01/19 05:49:01;;;;;;;52.05;22.83;;;;;;;;;;4924361;29;20023;-91
2022/01/19 05:51:28;;;;;;;97.30;43.58;;;;;;;;;;4924660;29;20485;-91
2022/01/19 05:53:54;;;;;;;137.60;62.17;;;;;;;;;;4941053;29;20027;-91
2022/01/19 05:56:20;;;;;;;83.80;42.72;;;;;;;;;;4940410;29;20450;-90
2022/01/19 05:58:46;;;;;;;78.32;38.72;;;;;;;;;;4924411;29;20054;-91
2022/01/19 06:01:12;;;;;;;76.97;32.40;;;;;;;;;;4924283;29;20036;-92
2022/01/19 06:03:39;;;;;;;61.65;28.80;;;;;;;;;;4923988;29;20036;-90
2022/01/19 06:06:05;;;;;;;71.32;28.75;;;;;;;;;;4941140;29;20028;-92
2022/01/19 06:11:17;;;;;;;92.68;45.72;;;;;;;;;;4941124;29;20046;-92
2022/01/19 06:13:43;;;;;;;117.55;58.40;;;;;;;;;;4924167;29;20020;-92
2022/01/19 06:16:09;;;;;;;84.55;42.30;;;;;;;;;;4923930;29;20027;-91
2022/01/19 06:18:35;;;;;;;75.15;36.15;;;;;;;;;;4921839;29;20437;-92
2022/01/19 06:21:01;;;;;;;71.97;33.20;;;;;;;;;;4929567;29;20059;-92
2022/01/19 06:23:28;;;;;;;87.45;35.17;;;;;;;;;;4941019;29;20031;-92
2022/01/19 06:25:54;;;;;;;121.75;42.63;;;;;;;;;;4923579;29;20130;-93
2022/01/19 06:28:20;;;;;;;117.78;47.13;;;;;;;;;;4923488;29;20028;-93
2022/01/19 06:30:46;;;;;;;109.90;42.22;;;;;;;;;;4940918;29;20028;-93
2022/01/19 06:33:12;;;;;;;88.43;36.88;;;;;;;;;;4940722;29;20020;-92
2022/01/19 06:35:38;;;;;;;84.30;39.50;;;;;;;;;;4940431;29;20036;-93
2022/01/19 06:38:04;;;;;;;94.28;44.72;;;;;;;;;;4940552;29;20411;-91
2022/01/19 06:40:30;;;;;;;97.03;49.15;;;;;;;;;;4940364;29;20078;-92
2022/01/19 06:42:56;;;;;;;84.65;45.05;;;;;;;;;;4939855;29;20027;-93
2022/01/19 06:45:23;;;;;;;92.75;49.50;;;;;;;;;;4940677;29;20031;-92
2022/01/19 06:50:53;;;;;;;120.22;68.53;;;;;;;;;;4940092;29;20047;-93
2022/01/19 06:53:20;;;;;;;119.97;62.67;;;;;;;;;;4940509;29;20326;-93
2022/01/19 06:55:47;;;;;;;125.35;59.00;;;;;;;;;;4939251;29;20028;-91
2022/01/19 06:58:13;;;;;;;155.32;52.50;;;;;;;;;;4939878;29;20330;-91
2022/01/19 07:00:39;;;;;;;166.40;51.35;;;;;;;;;;4939635;29;20058;-92
2022/01/19 07:06:11;;;;;;;131.35;41.05;;;;;;;;;;4940295;29;20330;-92
2022/01/19 07:08:38;;;;;;;77.07;33.58;;;;;;;;;;4940524;29;20028;-92
2022/01/19 07:11:04;;;;;;;67.50;28.40;;;;;;;;;;4923228;29;20027;-93
2022/01/19 07:13:33;;;;;;;65.30;29.35;;;;;;;;;;4923458;29;20043;-92
2022/01/19 07:15:59;;;;;;;87.53;39.58;;;;;;;;;;4940260;29;20106;-91
2022/01/19 07:18:25;;;;;;;104.03;43.67;;;;;;;;;;4940165;29;20367;-91
2022/01/19 07:20:51;;;;;;;102.10;40.60;;;;;;;;;;4940054;29;20031;-92
2022/01/19 07:23:17;;;;;;;81.35;33.08;;;;;;;;;;4923085;29;20044;-92
2022/01/19 07:25:43;;;;;;;77.18;35.50;;;;;;;;;;4923030;29;20052;-92
2022/01/19 07:28:11;;;;;;;65.40;31.77;;;;;;;;;;4939817;29;20032;-92
2022/01/19 07:30:37;;;;;;;52.40;24.70;;;;;;;;;;4939916;29;20024;-91
2022/01/19 07:36:07;;;;;;;58.10;22.85;;;;;;;;;;4939935;29;20042;-91
2022/01/19 07:38:33;;;;;;;55.00;25.02;;;;;;;;;;4923211;29;20040;-93
2022/01/19 07:40:59;;;;;;;67.90;29.83;;;;;;;;;;4922829;29;20061;-92
2022/01/19 07:43:25;;;;;;;82.40;35.40;;;;;;;;;;4923007;29;20039;-91
2022/01/19 07:45:51;;;;;;;102.25;43.42;;;;;;;;;;4940561;29;20039;-89
2022/01/19 07:48:18;;;;;;;109.75;47.10;;;;;;;;;;4923094;29;20040;-92
2022/01/19 07:50:44;;;;;;;101.85;43.13;;;;;;;;;;4939585;29;20102;-92
2022/01/19 07:53:10;;;;;;;95.68;44.03;;;;;;;;;;4940063;29;20414;-92
2022/01/19 07:55:36;;;;;;;95.55;43.33;;;;;;;;;;4939473;29;20032;-92
2022/01/19 07:58:02;;;;;;;91.25;42.10;;;;;;;;;;4939601;29;20031;-92
2022/01/19 08:00:29;;;;;;;90.95;37.80;;;;;;;;;;4926401;29;20020;-93
2022/01/19 08:02:55;;;;;;;78.40;33.42;;;;;;;;;;4925762;29;20027;-92
2022/01/19 08:05:21;;;;;;;73.40;34.97;;;;;;;;;;4943031;29;20039;-91
2022/01/19 08:07:47;;;;;;;73.10;32.63;;;;;;;;;;4942947;29;20086;-92
2022/01/19 08:10:13;;;;;;;71.32;32.38;;;;;;;;;;4943541;29;20023;-91
2022/01/19 08:12:40;;;;;;;76.32;35.00;;;;;;;;;;4925869;29;20026;-91
2022/01/19 08:15:06;;;;;;;61.72;28.77;;;;;;;;;;4943307;29;20051;-91
2022/01/19 08:17:33;;;;;;;75.47;31.23;;;;;;;;;;4926217;29;20039;-93
2022/01/19 08:19:59;;;;;;;55.30;27.15;;;;;;;;;;4926295;29;20024;-92
2022/01/19 08:22:25;;;;;;;44.72;20.45;;;;;;;;;;4943045;29;20039;-92
2022/01/19 08:24:51;;;;;;;67.25;30.52;;;;;;;;;;4942706;29;20066;-92
2022/01/19 08:27:17;;;;;;;56.60;22.50;;;;;;;;;;4942838;29;20047;-93
2022/01/19 08:29:44;;;;;;;50.35;21.77;;;;;;;;;;4942418;29;20036;-91
2022/01/19 08:32:10;;;;;;;46.92;19.95;;;;;;;;;;4942916;29;20028;-92
2022/01/19 08:34:36;;;;;;;50.40;20.08;;;;;;;;;;4942609;29;20034;-91
2022/01/19 08:37:03;;;;;;;80.25;27.52;;;;;;;;;;4941887;29;20024;-90
2022/01/19 08:39:29;;;;;;;84.50;27.80;;;;;;;;;;4942788;29;20403;-90
2022/01/19 08:41:55;;;;;;;84.95;34.95;;;;;;;;;;4942444;29;20023;-90
2022/01/19 08:44:22;;;;;;;93.13;30.50;;;;;;;;;;4925905;29;20119;-92
2022/01/19 08:46:48;;;;;;;77.57;25.42;;;;;;;;;;4942413;29;20079;-92
2022/01/19 08:49:15;;;;;;;114.65;31.88;;;;;;;;;;4925892;29;20024;-93
2022/01/19 08:51:41;;;;;;;49.30;19.42;;;;;;;;;;4925671;29;20066;-90
2022/01/19 08:54:07;;;;;;;86.95;28.15;;;;;;;;;;4925605;29;20023;-92
2022/01/19 08:56:33;;;;;;;53.47;16.77;;;;;;;;;;4942655;29;20041;-94
2022/01/19 08:58:59;;;;;;;40.00;16.25;;;;;;;;;;4942230;29;20035;-93
2022/01/19 09:01:26;;;;;;;38.75;16.55;;;;;;;;;;4942323;29;20036;-91
2022/01/19 09:03:52;;;;;;;42.08;19.90;;;;;;;;;;4942505;29;20024;-92
2022/01/19 09:06:19;;;;;;;44.67;21.98;;;;;;;;;;4942419;29;20024;-93
2022/01/19 09:08:45;;;;;;;37.53;18.42;;;;;;;;;;4931919;29;20030;-94
2022/01/19 09:11:12;;;;;;;41.78;22.17;;;;;;;;;;4941541;29;20016;-93
2022/01/19 09:13:38;;;;;;;36.70;17.27;;;;;;;;;;4941273;29;20425;-90
2022/01/19 09:16:05;;;;;;;33.97;15.63;;;;;;;;;;4942292;29;20059;-92
2022/01/19 09:18:32;;;;;;;32.55;14.93;;;;;;;;;;4942224;29;20330;-91
2022/01/19 09:20:58;;;;;;;28.77;11.90;;;;;;;;;;4925150;29;20082;-93
2022/01/19 09:23:24;;;;;;;31.27;10.55;;;;;;;;;;4941960;29;20031;-92
2022/01/19 09:25:50;;;;;;;31.65;11.80;;;;;;;;;;4924898;29;20043;-91
2022/01/19 09:28:16;;;;;;;29.40;10.15;;;;;;;;;;4942113;29;20114;-91
2022/01/19 09:30:42;;;;;;;24.50;10.02;;;;;;;;;;4924901;29;20039;-93
2022/01/19 09:33:17;;;;;;;30.75;10.75;;;;;;;;;;4924959;29;20085;-92
2022/01/19 09:38:23;;;;;;;27.50;11.07;;;;;;;;;;4941667;29;20064;-93
2022/01/19 09:40:49;;;;;;;44.13;15.18;;;;;;;;;;4924921;29;20323;-92
2022/01/19 09:43:17;;;;;;;40.33;16.38;;;;;;;;;;4924762;29;20082;-92
2022/01/19 09:45:44;;;;;;;50.10;17.58;;;;;;;;;;4924725;29;20335;-91
2022/01/19 09:48:10;;;;;;;38.63;14.27;;;;;;;;;;4924696;29;20031;-92
2022/01/19 09:50:36;;;;;;;41.70;16.17;;;;;;;;;;4913679;29;20032;-91
2022/01/19 09:53:03;;;;;;;40.08;15.30;;;;;;;;;;4905687;29;20020;-92
2022/01/19 09:55:29;;;;;;;45.03;16.35;;;;;;;;;;4922743;29;20044;-93
2022/01/19 09:57:55;;;;;;;38.10;15.95;;;;;;;;;;4905734;29;20028;-91
2022/01/19 10:00:21;;;;;;;38.05;14.45;;;;;;;;;;4923428;29;20032;-94
2022/01/19 10:03:23;;;;;;;35.47;15.80;;;;;;;;;;4922257;29;20056;-93
2022/01/19 10:05:56;;;;;;;46.40;16.42;;;;;;;;;;4830533;29;20088;-93
2022/01/19 10:08:26;;;;;;;49.72;17.55;;;;;;;;;;4845956;29;20034;-94
2022/01/19 10:11:04;;;;;;;62.95;23.27;;;;;;;;;;4845972;29;20045;-94
2022/01/19 10:19:18;;;;;;;76.38;26.15;;;;;;;;;;4809462;29;20038;-96
2022/01/19 10:21:56;;;;;;;63.85;23.00;;;;;;;;;;4794363;29;20466;-93
2022/01/19 10:24:46;;;;;;;52.13;21.25;;;;;;;;;;4794017;29;20049;-94
2022/01/19 10:27:21;;;;;;;53.53;20.45;;;;;;;;;;4720484;30;20061;-95
2022/01/19 10:29:48;;;;;;;52.45;20.33;;;;;;;;;;4720158;30;20504;-93
2022/01/19 10:32:15;;;;;;;48.30;21.58;;;;;;;;;;4720508;30;20053;-94
2022/01/19 10:34:41;;;;;;;44.47;17.75;;;;;;;;;;4720345;30;20036;-94
2022/01/19 10:37:07;;;;;;;39.55;14.43;;;;;;;;;;4720445;30;20208;-93
2022/01/19 10:39:46;;;;;;;38.28;17.13;;;;;;;;;;4742563;30;20040;-96
2022/01/19 10:42:15;;;;;;;35.70;13.85;;;;;;;;;;4773218;30;20048;-94
2022/01/19 10:44:45;;;;;;;48.95;18.13;;;;;;;;;;4773203;30;20035;-94
2022/01/19 10:47:11;;;;;;;40.80;15.15;;;;;;;;;;4773087;30;20069;-94
2022/01/19 10:49:47;;;;;;;33.30;13.27;;;;;;;;;;4772860;30;20115;-95
2022/01/19 10:52:25;;;;;;;41.65;15.38;;;;;;;;;;4773368;30;20382;-92
2022/01/19 10:54:52;;;;;;;48.40;17.40;;;;;;;;;;4782340;29;20087;-95
2022/01/19 10:57:18;;;;;;;34.90;13.85;;;;;;;;;;4827436;29;20042;-94
2022/01/19 10:59:44;;;;;;;33.63;12.60;;;;;;;;;;4832071;29;20034;-95
2022/01/19 11:02:12;;;;;;;31.48;13.02;;;;;;;;;;4840135;29;20125;-94
2022/01/19 11:04:39;;;;;;;31.35;12.02;;;;;;;;;;4910013;29;20123;-93
2022/01/19 11:07:06;;;;;;;34.70;13.80;;;;;;;;;;4940324;29;20032;-93
2022/01/19 11:09:34;;;;;;;35.15;15.10;;;;;;;;;;4940521;29;20028;-95
2022/01/19 11:12:05;;;;;;;29.73;11.82;;;;;;;;;;4923732;29;20024;-93
2022/01/19 11:14:31;;;;;;;40.70;16.90;;;;;;;;;;4923620;29;20106;-94
2022/01/19 11:16:57;;;;;;;126.20;47.70;;;;;;;;;;4923414;29;20035;-94
2022/01/19 11:19:24;;;;;;;289.75;115.25;;;;;;;;;;4923427;29;20032;-94
2022/01/19 11:21:59;;;;;;;420.50;169.73;;;;;;;;;;4923678;29;20028;-95
2022/01/19 11:24:31;;;;;;;244.82;90.07;;;;;;;;;;4940327;29;20024;-94
2022/01/19 11:26:58;;;;;;;68.20;26.73;;;;;;;;;;4920059;29;20044;-95
2022/01/19 11:29:24;;;;;;;36.25;14.75;;;;;;;;;;4940108;29;20115;-95
2022/01/19 11:31:52;;;;;;;44.47;15.30;;;;;;;;;;4917581;29;20434;-93
2022/01/19 11:34:38;;;;;;;74.45;28.13;;;;;;;;;;4926905;29;20025;-94
2022/01/19 11:37:04;;;;;;;64.32;23.30;;;;;;;;;;4924472;29;20082;-94
2022/01/19 11:39:30;;;;;;;379.63;146.95;;;;;;;;;;4924904;29;20059;-95
2022/01/19 11:42:01;;;;;;;67.47;24.98;;;;;;;;;;4908188;29;20035;-95
2022/01/19 11:44:30;;;;;;;97.82;40.00;;;;;;;;;;4924810;29;20075;-94
2022/01/19 11:46:57;;;;;;;874.20;427.50;;;;;;;;;;4908128;29;20088;-93
2022/01/19 11:49:42;;;;;;;98.10;39.22;;;;;;;;;;4924841;29;20032;-93
2022/01/19 11:52:08;;;;;;;106.50;41.05;;;;;;;;;;4924677;29;20020;-94
2022/01/19 11:54:34;;;;;;;56.47;21.67;;;;;;;;;;4924784;29;20029;-96
2022/01/19 11:57:04;;;;;;;58.13;22.67;;;;;;;;;;4907830;29;20032;-95
2022/01/19 11:59:30;;;;;;;42.30;15.85;;;;;;;;;;4924707;29;20040;-94
2022/01/19 12:02:36;;;;;;;39.05;16.33;;;;;;;;;;4908050;29;20024;-93
2022/01/19 12:05:11;;;;;;;127.47;55.30;;;;;;;;;;4924508;29;20086;-94
2022/01/19 12:07:41;;;;;;;81.05;35.70;;;;;;;;;;4924374;29;20027;-95
2022/01/19 12:10:09;;;;;;;55.38;21.35;;;;;;;;;;4924247;29;20048;-93
2022/01/19 12:12:44;;;;;;;120.00;53.15;;;;;;;;;;4907595;29;20024;-93
2022/01/19 12:15:31;;;;;;;159.98;69.30;;;;;;;;;;4924453;29;20032;-95
2022/01/19 12:18:07;;;;;;;81.82;32.03;;;;;;;;;;4907473;29;20043;-94
2022/01/19 12:20:52;;;;;;;75.05;31.98;;;;;;;;;;4924279;29;20024;-95
2022/01/19 12:23:29;;;;;;;73.03;25.98;;;;;;;;;;4924049;29;20031;-95
2022/01/19 12:25:55;;;;;;;231.45;99.93;;;;;;;;;;4923918;29;20047;-93
2022/01/19 12:28:40;;;;;;;81.90;35.35;;;;;;;;;;4907434;29;20028;-94
2022/01/19 12:31:24;;;;;;;204.73;92.25;;;;;;;;;;4923950;29;20044;-94
2022/01/19 12:34:03;;;;;;;88.40;35.55;;;;;;;;;;4909745;29;20024;-94
2022/01/19 12:36:41;;;;;;;317.27;138.07;;;;;;;;;;4939762;29;20035;-96
2022/01/19 12:39:26;;;;;;;42.97;18.48;;;;;;;;;;4925890;29;20043;-93
2022/01/19 12:42:01;;;;;;;43.60;15.07;;;;;;;;;;4926707;29;20087;-95
2022/01/19 12:44:36;;;;;;;63.17;25.50;;;;;;;;;;4942633;29;20051;-93
2022/01/19 12:47:03;;;;;;;41.78;15.98;;;;;;;;;;4941450;29;20111;-95
2022/01/19 12:49:30;;;;;;;156.68;56.22;;;;;;;;;;4925947;29;20023;-94
2022/01/19 12:51:57;;;;;;;65.35;24.33;;;;;;;;;;4942555;29;20052;-95
2022/01/19 12:54:27;;;;;;;62.35;22.42;;;;;;;;;;4942615;29;20075;-94
2022/01/19 12:57:03;;;;;;;76.97;25.42;;;;;;;;;;4925756;29;20032;-92
2022/01/19 12:59:29;;;;;;;81.00;32.17;;;;;;;;;;4942473;29;20039;-94
2022/01/19 13:01:55;;;;;;;54.00;19.60;;;;;;;;;;4925470;29;20035;-95
2022/01/19 13:04:29;;;;;;;67.28;25.88;;;;;;;;;;4942663;29;20115;-95
2022/01/19 13:06:57;;;;;;;38.40;15.45;;;;;;;;;;4925441;29;20042;-94
2022/01/19 13:09:34;;;;;;;150.52;55.65;;;;;;;;;;4942296;29;20111;-95
2022/01/19 13:12:10;;;;;;;119.78;44.80;;;;;;;;;;4925500;29;20022;-94
2022/01/19 13:14:36;;;;;;;351.85;121.07;;;;;;;;;;4942077;29;20024;-94
2022/01/19 13:17:03;;;;;;;729.53;304.67;;;;;;;;;;4925294;29;20381;-93
2022/01/19 13:19:29;;;;;;;159.52;57.42;;;;;;;;;;4942328;29;20059;-94
2022/01/19 13:22:03;;;;;;;81.82;29.08;;;;;;;;;;4942179;29;20031;-96
2022/01/19 13:24:32;;;;;;;240.85;79.22;;;;;;;;;;4941959;29;20027;-94
2022/01/19 13:26:59;;;;;;;313.13;105.10;;;;;;;;;;4942107;29;20071;-93
2022/01/19 13:29:36;;;;;;;211.40;69.38;;;;;;;;;;4941955;29;20087;-92
2022/01/19 13:32:02;;;;;;;43.08;14.82;;;;;;;;;;4941863;29;20112;-94
2022/01/19 13:34:30;;;;;;;270.85;98.60;;;;;;;;;;4925081;29;20339;-93
2022/01/19 13:37:01;;;;;;;699.83;318.77;;;;;;;;;;4941771;29;20023;-94
2022/01/19 13:39:28;;;;;;;82.68;30.77;;;;;;;;;;4941633;29;20099;-96
2022/01/19 13:41:57;;;;;;;86.10;33.83;;;;;;;;;;4941475;29;20036;-92
2022/01/19 13:44:26;;;;;;;130.15;46.03;;;;;;;;;;4925007;29;20383;-94
2022/01/19 13:47:03;;;;;;;454.95;196.82;;;;;;;;;;4924861;29;20028;-93
2022/01/19 13:49:29;;;;;;;195.65;77.45;;;;;;;;;;4924676;29;20023;-93
2022/01/19 13:51:55;;;;;;;133.43;54.10;;;;;;;;;;4924733;29;20039;-95
2022/01/19 13:54:21;;;;;;;61.53;28.40;;;;;;;;;;4941386;29;20020;-94
2022/01/19 13:56:55;;;;;;;142.48;56.53;;;;;;;;;;4941283;29;20111;-92
2022/01/19 13:59:24;;;;;;;177.52;79.10;;;;;;;;;;4912190;29;20020;-93
2022/01/19 14:01:59;;;;;;;307.23;130.50;;;;;;;;;;4937718;29;20027;-92
2022/01/19 14:04:34;;;;;;;572.60;305.45;;;;;;;;;;4941363;29;20027;-93
2022/01/19 14:07:05;;;;;;;263.63;120.90;;;;;;;;;;4941208;29;20528;-93
2022/01/19 14:09:32;;;;;;;309.35;139.18;;;;;;;;;;4924509;29;20107;-92
2022/01/19 14:11:59;;;;;;;233.15;113.00;;;;;;;;;;4924335;29;20030;-92
2022/01/19 14:14:31;;;;;;;205.60;99.68;;;;;;;;;;4940919;29;20024;-93
2022/01/19 14:16:58;;;;;;;257.10;128.35;;;;;;;;;;4923983;29;20028;-92
2022/01/19 14:19:28;;;;;;;256.17;122.22;;;;;;;;;;4924256;29;20141;-93
2022/01/19 14:22:03;;;;;;;134.68;62.55;;;;;;;;;;4924066;29;20036;-92
2022/01/19 14:24:50;;;;;;;103.32;48.17;;;;;;;;;;4940905;29;20063;-92
2022/01/19 14:27:32;;;;;;;95.68;42.60;;;;;;;;;;4882422;29;20064;-93
2022/01/19 14:29:58;;;;;;;90.38;45.97;;;;;;;;;;4882844;29;20063;-92
2022/01/19 14:32:43;;;;;;;104.57;48.97;;;;;;;;;;4882574;29;20146;-93
2022/01/19 14:35:19;;;;;;;155.77;69.90;;;;;;;;;;4882597;29;20217;-92
2022/01/19 14:37:55;;;;;;;129.75;55.60;;;;;;;;;;4882657;29;20033;-92
2022/01/19 14:40:21;;;;;;;119.63;51.22;;;;;;;;;;4882160;29;20431;-93
2022/01/19 14:42:50;;;;;;;102.03;34.22;;;;;;;;;;4882302;29;20036;-92
2022/01/19 14:45:22;;;;;;;107.30;41.47;;;;;;;;;;4882506;29;20056;-93
2022/01/19 14:47:53;;;;;;;121.05;48.40;;;;;;;;;;4882576;29;20428;-93
2022/01/19 14:50:36;;;;;;;184.63;93.78;;;;;;;;;;4882458;29;20021;-93
2022/01/19 14:53:04;;;;;;;212.15;118.38;;;;;;;;;;4882030;29;20411;-93
2022/01/19 14:55:32;;;;;;;198.95;116.70;;;;;;;;;;4882164;29;20124;-94
2022/01/19 14:57:59;;;;;;;169.70;98.93;;;;;;;;;;4882346;29;20048;-93
2022/01/19 15:00:26;;;;;;;132.32;71.35;;;;;;;;;;4882271;29;20033;-92
2022/01/19 15:02:58;;;;;;;102.80;48.95;;;;;;;;;;4882149;29;20033;-93
2022/01/19 15:05:31;;;;;;;112.38;55.33;;;;;;;;;;4920919;29;20039;-93
2022/01/19 15:07:58;;;;;;;90.93;47.30;;;;;;;;;;4923657;29;20034;-94
2022/01/19 15:10:25;;;;;;;79.35;39.92;;;;;;;;;;4939266;29;20019;-93
2022/01/19 15:12:53;;;;;;;98.45;43.03;;;;;;;;;;4940455;29;20024;-93
2022/01/19 15:15:24;;;;;;;396.58;152.52;;;;;;;;;;4940327;29;20032;-93
2022/01/19 15:17:54;;;;;;;796.90;373.85;;;;;;;;;;4940239;29;20422;-93
2022/01/19 15:20:20;;;;;;;974.35;453.52;;;;;;;;;;4940388;29;20031;-93
2022/01/19 15:22:47;;;;;;;1407.13;645.03;;;;;;;;;;4940117;29;20044;-93
2022/01/19 15:25:14;;;;;;;851.47;394.70;;;;;;;;;;4940027;29;20087;-94
2022/01/19 15:27:40;;;;;;;643.72;281.60;;;;;;;;;;4940057;29;20342;-93
2022/01/19 15:30:07;;;;;;;1460.10;641.78;;;;;;;;;;4923496;29;20039;-92
2022/01/19 15:32:33;;;;;;;1999.90;820.15;;;;;;;;;;4923350;29;20035;-92
2022/01/19 15:34:59;;;;;;;1631.60;730.90;;;;;;;;;;4939996;29;20103;-93
2022/01/19 15:37:25;;;;;;;1510.68;699.90;;;;;;;;;;4923290;29;20032;-93
2022/01/19 15:39:54;;;;;;;836.58;411.27;;;;;;;;;;4923171;29;20027;-93
2022/01/19 15:42:20;;;;;;;765.63;371.90;;;;;;;;;;4939735;29;20027;-93
2022/01/19 15:44:48;;;;;;;559.13;257.58;;;;;;;;;;4939773;29;20024;-94
2022/01/19 15:47:15;;;;;;;700.33;348.13;;;;;;;;;;4939993;29;20027;-93
2022/01/19 15:49:41;;;;;;;689.58;346.48;;;;;;;;;;4940376;29;20296;-93
2022/01/19 15:52:07;;;;;;;943.38;445.45;;;;;;;;;;4939775;29;20055;-95
2022/01/19 15:54:34;;;;;;;1173.60;532.03;;;;;;;;;;4939567;29;20024;-93
2022/01/19 15:57:01;;;;;;;1202.35;548.75;;;;;;;;;;4939560;29;20469;-92
2022/01/19 15:59:27;;;;;;;1586.75;666.58;;;;;;;;;;4929198;29;20032;-93
2022/01/19 16:01:53;;;;;;;879.42;386.92;;;;;;;;;;4938092;29;20031;-94
2022/01/19 16:04:19;;;;;;;923.40;418.13;;;;;;;;;;4930787;29;20068;-91
2022/01/19 16:06:45;;;;;;;1310.22;603.30;;;;;;;;;;4938057;29;20046;-89
2022/01/19 16:09:13;;;;;;;1063.82;503.88;;;;;;;;;;4923010;29;20028;-90
2022/01/19 16:11:39;;;;;;;1532.50;686.92;;;;;;;;;;4940046;29;20094;-89
2022/01/19 16:14:06;;;;;;;597.72;286.02;;;;;;;;;;4939483;29;20031;-89
2022/01/19 16:16:32;;;;;;;1272.85;602.05;;;;;;;;;;4922839;29;20413;-89
2022/01/19 16:18:58;;;;;;;1239.25;588.13;;;;;;;;;;4939806;29;20031;-89
2022/01/19 16:21:25;;;;;;;1063.18;522.10;;;;;;;;;;4940394;29;20027;-89
2022/01/19 16:26:36;;;;;;;1901.68;829.15;;;;;;;;;;4926073;29;20128;-90
2022/01/19 16:29:03;;;;;;;1395.85;687.15;;;;;;;;;;4925931;29;20073;-89
2022/01/19 16:31:29;;;;;;;1150.75;580.60;;;;;;;;;;4937108;29;20055;-89
2022/01/19 16:33:55;;;;;;;865.95;412.80;;;;;;;;;;4906995;29;20126;-90
2022/01/19 16:36:22;;;;;;;1189.63;534.60;;;;;;;;;;4923837;29;20028;-89
2022/01/19 16:38:48;;;;;;;1759.65;686.65;;;;;;;;;;4923801;29;20434;-90
2022/01/19 16:41:17;;;;;;;1999.90;794.90;;;;;;;;;;4923662;29;20462;-89
2022/01/19 16:43:47;;;;;;;1677.95;704.83;;;;;;;;;;4923977;29;20032;-90
2022/01/19 16:46:14;;;;;;;709.72;323.77;;;;;;;;;;4906976;29;20032;-90
2022/01/19 16:48:41;;;;;;;914.45;462.13;;;;;;;;;;4906826;29;20031;-89
2022/01/19 16:51:07;;;;;;;859.50;432.48;;;;;;;;;;4906991;29;20111;-90
2022/01/19 16:53:34;;;;;;;453.27;205.00;;;;;;;;;;4923753;29;20360;-89
2022/01/19 16:56:03;;;;;;;294.40;127.22;;;;;;;;;;4906948;29;20036;-89
2022/01/19 16:58:30;;;;;;;355.45;161.95;;;;;;;;;;4906886;29;20040;-89
2022/01/19 17:00:57;;;;;;;235.73;104.45;;;;;;;;;;4923383;29;20031;-90
2022/01/19 17:03:24;;;;;;;254.18;113.15;;;;;;;;;;4923528;29;20080;-90
2022/01/19 17:05:50;;;;;;;279.75;126.32;;;;;;;;;;4923095;29;20028;-88
2022/01/19 17:08:20;;;;;;;333.40;161.18;;;;;;;;;;4906743;29;20119;-89
2022/01/19 17:10:53;;;;;;;326.75;153.07;;;;;;;;;;4923480;29;20024;-89
2022/01/19 17:13:42;;;;;;;372.83;172.73;;;;;;;;;;4906677;29;20036;-89
2022/01/19 17:18:42;;;;;;;301.73;139.68;;;;;;;;;;4923398;29;20028;-93
2022/01/19 17:21:10;;;;;;;258.17;120.60;;;;;;;;;;4923139;29;20030;-93
2022/01/19 17:23:37;;;;;;;405.45;188.45;;;;;;;;;;4923186;29;20323;-93